Time;durP1;ratioP1;P1;durP2;ratioP2;P2;SDS_P1;SDS_P2;PMS_P1;PMS_P2;Temp;Humidity;BMP_temperature;BMP_pressure;BME280_temperature;BME280_humidity;BME280_pressure;Samples;Min_cycle;Max_cycle;Signal;HPM_P1;HPM_P2
2021/05/17 00:01:26;;;;;;;19.77;17.70;;;;;;;12.83;66.87;98858.97;5041257;28;20561;-66
2021/05/17 00:03:52;;;;;;;20.13;17.20;;;;;;;12.59;68.43;98852.09;5041477;28;20489;-66
2021/05/17 00:06:20;;;;;;;22.33;16.83;;;;;;;12.42;69.10;98849.63;5040921;28;20477;-66
2021/05/17 00:08:47;;;;;;;22.60;17.23;;;;;;;12.69;67.91;98844.59;5033983;28;20449;-66
2021/05/17 00:11:13;;;;;;;20.87;16.37;;;;;;;12.74;67.42;98844.84;5040868;28;20558;-67
2021/05/17 00:13:40;;;;;;;21.43;18.13;;;;;;;12.69;67.46;98841.06;5041774;28;20446;-67
2021/05/17 00:16:07;;;;;;;20.83;17.73;;;;;;;12.87;66.76;98837.97;5040666;28;20481;-67
2021/05/17 00:18:33;;;;;;;22.33;17.07;;;;;;;12.90;66.75;98849.16;5044135;28;20457;-66
2021/05/17 00:20:59;;;;;;;20.00;16.60;;;;;;;12.84;66.76;98846.38;5044805;28;20476;-66
2021/05/17 00:23:26;;;;;;;20.73;17.40;;;;;;;12.84;66.77;98852.56;5036384;28;20950;-66
2021/05/17 00:25:54;;;;;;;20.23;18.10;;;;;;;12.87;66.11;98846.03;5044083;28;20677;-66
2021/05/17 00:28:20;;;;;;;17.63;14.07;;;;;;;12.75;66.29;98849.19;5044534;28;20798;-66
2021/05/17 00:30:47;;;;;;;16.20;13.83;;;;;;;12.67;66.89;98843.91;5043728;28;20501;-66
2021/05/17 00:33:13;;;;;;;13.70;11.90;;;;;;;12.68;66.95;98845.59;5035048;28;20465;-66
2021/05/17 00:35:40;;;;;;;13.63;12.03;;;;;;;12.81;66.35;98851.13;5044105;28;20501;-66
2021/05/17 00:38:07;;;;;;;13.63;11.30;;;;;;;12.86;66.28;98838.97;5044414;28;20500;-66
2021/05/17 00:40:33;;;;;;;12.10;10.70;;;;;;;12.75;66.63;98845.69;5036724;28;20468;-66
2021/05/17 00:43:00;;;;;;;12.27;10.43;;;;;;;12.79;66.75;98853.16;5044566;28;20486;-66
2021/05/17 00:45:27;;;;;;;14.93;12.30;;;;;;;12.83;66.53;98853.63;5044046;28;20469;-66
2021/05/17 00:47:53;;;;;;;17.63;12.47;;;;;;;12.83;66.20;98842.88;5044661;28;20452;-66
2021/05/17 00:50:22;;;;;;;13.80;11.77;;;;;;;12.65;66.42;98843.28;5043280;28;20458;-66
2021/05/17 00:52:49;;;;;;;14.17;11.50;;;;;;;12.62;66.40;98843.69;5038336;28;20526;-66
2021/05/17 00:55:17;;;;;;;15.23;11.50;;;;;;;12.69;65.98;98844.59;5041516;28;20505;-66
2021/05/17 00:57:43;;;;;;;14.37;11.37;;;;;;;12.64;66.11;98841.66;5044195;28;20450;-66
2021/05/17 01:00:13;;;;;;;11.80;10.70;;;;;;;12.60;66.34;98843.88;5043158;28;20521;-66
2021/05/17 01:02:39;;;;;;;14.67;11.93;;;;;;;12.32;67.38;98838.34;5037275;28;20540;-66
2021/05/17 01:05:07;;;;;;;13.87;10.70;;;;;;;12.33;67.37;98841.88;5043932;28;20545;-66
2021/05/17 01:07:33;;;;;;;14.60;10.73;;;;;;;12.53;66.41;98842.13;5043958;28;20528;-66
2021/05/17 01:10:00;;;;;;;13.40;11.20;;;;;;;12.19;67.69;98840.88;5043960;28;20465;-66
2021/05/17 01:12:26;;;;;;;14.10;11.60;;;;;;;12.24;67.25;98836.63;5043023;28;20474;-66
2021/05/17 01:14:56;;;;;;;13.00;11.10;;;;;;;11.90;69.21;98834.47;5044326;28;20445;-66
2021/05/17 01:17:25;;;;;;;15.73;12.60;;;;;;;11.96;69.00;98836.44;5043438;28;20549;-66
2021/05/17 01:20:08;;;;;;;18.20;13.47;;;;;;;11.88;69.43;98839.16;5044371;28;20473;-66
2021/05/17 01:22:39;;;;;;;17.97;13.10;;;;;;;11.74;69.93;98840.00;5034182;28;20485;-66
2021/05/17 01:25:07;;;;;;;19.97;14.87;;;;;;;11.99;69.83;98838.72;5043271;28;20489;-67
2021/05/17 01:27:35;;;;;;;16.20;13.60;;;;;;;12.26;68.60;98840.97;5044046;28;20485;-66
2021/05/17 01:30:02;;;;;;;17.93;13.40;;;;;;;12.00;69.21;98842.25;5042151;28;20511;-67
2021/05/17 01:32:28;;;;;;;16.07;14.37;;;;;;;12.20;68.57;98837.16;5042598;28;20569;-66
2021/05/17 01:34:55;;;;;;;19.37;15.50;;;;;;;12.24;68.68;98841.16;5043530;28;20457;-66
2021/05/17 01:37:23;;;;;;;18.97;14.27;;;;;;;12.11;68.66;98835.59;5043170;28;20492;-66
2021/05/17 01:39:52;;;;;;;18.53;14.47;;;;;;;12.01;69.15;98843.91;5043667;28;20450;-66
2021/05/17 01:42:21;;;;;;;20.90;15.00;;;;;;;12.05;69.17;98850.56;5042743;28;20482;-66
2021/05/17 01:44:47;;;;;;;17.47;14.37;;;;;;;12.04;69.00;98854.25;5043731;28;21057;-66
2021/05/17 01:47:17;;;;;;;14.97;13.10;;;;;;;11.85;69.79;98856.44;5042743;28;20553;-66
2021/05/17 01:49:44;;;;;;;22.23;14.57;;;;;;;12.22;68.36;98852.06;5043299;28;20884;-67
2021/05/17 01:52:11;;;;;;;20.17;12.03;;;;;;;12.00;68.55;98853.81;5042556;28;20473;-67
2021/05/17 01:54:42;;;;;;;16.90;12.93;;;;;;;12.10;68.35;98852.69;5043336;28;20529;-66
2021/05/17 01:57:08;;;;;;;16.13;12.20;;;;;;;12.07;68.18;98853.06;5042301;28;20548;-67
2021/05/17 01:59:36;;;;;;;16.83;12.40;;;;;;;11.94;69.01;98849.16;5043392;28;20470;-66
2021/05/17 02:02:02;;;;;;;15.67;12.60;;;;;;;12.28;67.43;98849.66;5042540;28;20509;-66
2021/05/17 02:04:28;;;;;;;13.53;12.13;;;;;;;12.07;67.94;98861.13;5043449;28;20520;-67
2021/05/17 02:06:55;;;;;;;12.10;10.50;;;;;;;12.25;67.51;98853.50;5042336;28;20560;-66
2021/05/17 02:09:22;;;;;;;13.00;11.60;;;;;;;12.42;66.60;98851.47;5043006;28;20450;-66
2021/05/17 02:11:49;;;;;;;10.70;9.13;;;;;;;11.92;67.97;98858.41;5042165;28;20482;-67
2021/05/17 02:14:17;;;;;;;13.97;9.97;;;;;;;11.88;68.17;98855.25;5043221;28;20946;-66
2021/05/17 02:16:44;;;;;;;13.40;9.97;;;;;;;11.93;68.22;98852.06;5042188;28;20539;-66
2021/05/17 02:19:11;;;;;;;16.13;9.43;;;;;;;12.10;67.45;98856.22;5043390;28;20450;-66
2021/05/17 02:21:38;;;;;;;10.57;9.17;;;;;;;12.23;66.90;98861.72;5041154;28;21018;-66
2021/05/17 02:24:09;;;;;;;11.53;9.60;;;;;;;12.39;66.28;98862.56;5042666;28;20714;-67
2021/05/17 02:26:35;;;;;;;12.90;8.87;;;;;;;12.30;66.49;98853.78;5041913;28;20525;-66
2021/05/17 02:29:03;;;;;;;11.77;9.40;;;;;;;12.09;66.65;98856.41;5042531;28;20514;-67
2021/05/17 02:31:29;;;;;;;9.70;8.73;;;;;;;12.23;66.96;98859.06;5041654;28;20478;-67
2021/05/17 02:33:58;;;;;;;14.33;9.83;;;;;;;11.85;68.15;98863.63;5042791;28;20442;-67
2021/05/17 02:36:25;;;;;;;9.43;8.43;;;;;;;12.14;67.51;98857.50;5042350;28;20482;-66
2021/05/17 02:38:51;;;;;;;9.73;8.30;;;;;;;12.17;67.14;98853.59;5041377;28;20486;-66
2021/05/17 02:41:20;;;;;;;13.70;9.37;;;;;;;12.26;67.09;98855.19;5041535;28;20485;-66
2021/05/17 02:43:47;;;;;;;9.30;8.40;;;;;;;12.40;66.37;98862.38;5042190;28;21001;-66
2021/05/17 02:46:13;;;;;;;12.60;10.50;;;;;;;12.05;67.34;98859.44;5042187;28;20648;-67
2021/05/17 02:48:41;;;;;;;9.70;8.10;;;;;;;12.16;67.33;98870.72;5040894;28;20458;-66
2021/05/17 02:51:09;;;;;;;11.10;9.33;;;;;;;12.16;66.50;98873.41;5041518;28;20478;-66
2021/05/17 02:54:07;;;;;;;11.27;8.97;;;;;;;12.22;66.56;98872.63;5042433;28;20453;-66
2021/05/17 02:56:36;;;;;;;11.63;10.40;;;;;;;12.28;66.03;98871.09;5036018;28;20489;-66
2021/05/17 02:59:04;;;;;;;10.10;8.07;;;;;;;12.20;66.23;98874.69;5042750;28;20656;-66
2021/05/17 03:01:37;;;;;;;10.63;8.77;;;;;;;12.01;66.96;98878.72;5037043;28;20506;-66
2021/05/17 03:04:08;;;;;;;10.93;8.40;;;;;;;12.02;67.11;98875.06;5042273;28;20515;-67
2021/05/17 03:06:37;;;;;;;9.17;8.27;;;;;;;12.01;67.12;98873.38;5041681;28;20474;-66
2021/05/17 03:09:05;;;;;;;11.60;8.20;;;;;;;12.10;66.71;98868.75;5041740;28;20545;-66
2021/05/17 03:11:33;;;;;;;8.83;8.03;;;;;;;12.05;66.82;98870.16;5041358;28;20481;-66
2021/05/17 03:14:00;;;;;;;10.07;8.47;;;;;;;11.73;68.10;98875.81;5042378;28;20493;-67
2021/05/17 03:16:26;;;;;;;10.20;8.47;;;;;;;11.70;68.02;98877.00;5041775;28;20509;-67
2021/05/17 03:18:54;;;;;;;8.80;7.90;;;;;;;11.96;67.15;98879.31;5041905;28;20544;-66
2021/05/17 03:21:22;;;;;;;8.63;7.60;;;;;;;11.88;67.30;98887.38;5041421;28;20480;-66
2021/05/17 03:23:50;;;;;;;9.40;7.90;;;;;;;11.92;67.51;98885.19;5041770;28;20541;-67
2021/05/17 03:26:17;;;;;;;7.83;7.03;;;;;;;12.02;66.95;98881.22;5041428;28;20481;-66
2021/05/17 03:28:43;;;;;;;9.80;8.00;;;;;;;12.17;66.23;98891.97;5041533;28;20484;-67
2021/05/17 03:31:09;;;;;;;9.10;8.10;;;;;;;12.46;65.68;98884.09;5040744;28;20578;-67
2021/05/17 03:33:36;;;;;;;9.80;7.70;;;;;;;12.32;66.15;98893.81;5042392;28;20840;-66
2021/05/17 03:36:02;;;;;;;7.80;7.10;;;;;;;12.63;64.92;98888.22;5041616;28;20474;-66
2021/05/17 03:38:28;;;;;;;12.13;8.60;;;;;;;12.43;65.49;98886.13;5042244;28;20553;-66
2021/05/17 03:40:55;;;;;;;12.17;8.43;;;;;;;12.92;64.56;98890.03;5040897;28;20467;-66
2021/05/17 03:43:21;;;;;;;8.03;7.33;;;;;;;13.13;64.17;98891.06;5041710;28;20453;-67
2021/05/17 03:45:47;;;;;;;8.03;7.23;;;;;;;13.19;63.51;98890.28;5041354;28;20489;-67
2021/05/17 03:48:13;;;;;;;8.10;6.83;;;;;;;12.74;63.83;98903.00;5042012;28;20488;-66
2021/05/17 03:50:39;;;;;;;8.37;7.47;;;;;;;12.80;63.63;98894.22;5041660;28;20774;-66
2021/05/17 03:53:06;;;;;;;9.57;7.23;;;;;;;13.25;63.46;98889.53;5043597;28;20481;-67
2021/05/17 03:55:32;;;;;;;11.50;7.47;;;;;;;13.60;61.43;98897.75;5045275;28;20915;-67
2021/05/17 03:58:00;;;;;;;6.67;6.07;;;;;;;14.34;60.52;98900.94;5046155;28;20466;-66
2021/05/17 04:00:27;;;;;;;6.60;6.00;;;;;;;14.26;59.95;98905.44;5045298;28;20469;-66
2021/05/17 04:02:53;;;;;;;6.93;6.30;;;;;;;13.99;59.64;98903.63;5045874;28;20458;-66
2021/05/17 04:05:30;;;;;;;5.77;5.27;;;;;;;13.36;60.61;98902.47;5045077;28;20548;-67
2021/05/17 04:08:11;;;;;;;6.17;5.43;;;;;;;13.65;61.21;98910.59;5045813;28;20476;-66
2021/05/17 04:13:25;;;;;;;6.40;5.83;;;;;;;13.12;62.51;98906.34;5045897;28;20472;-67
2021/05/17 04:15:52;;;;;;;6.60;6.00;;;;;;;13.17;62.90;98921.84;5044860;28;20481;-67
2021/05/17 04:18:20;;;;;;;8.33;5.67;;;;;;;13.32;62.37;98914.63;5045878;28;20426;-67
2021/05/17 04:20:46;;;;;;;7.40;5.93;;;;;;;13.01;62.43;98920.25;5045023;28;20469;-66
2021/05/17 04:23:13;;;;;;;5.63;5.10;;;;;;;12.93;63.16;98923.88;5045422;28;20526;-67
2021/05/17 04:25:39;;;;;;;5.50;5.00;;;;;;;12.77;63.82;98924.09;5044518;28;20752;-67
2021/05/17 04:28:05;;;;;;;7.00;6.00;;;;;;;13.10;63.91;98927.16;5044915;28;20536;-66
2021/05/17 04:30:32;;;;;;;7.23;5.47;;;;;;;13.19;63.16;98926.03;5044684;28;21047;-67
2021/05/17 04:32:59;;;;;;;7.37;5.90;;;;;;;13.44;62.62;98920.31;5045656;28;20481;-67
2021/05/17 04:35:25;;;;;;;9.03;6.37;;;;;;;13.13;62.71;98926.78;5044941;28;20495;-67
2021/05/17 04:37:51;;;;;;;6.80;5.43;;;;;;;13.18;62.60;98918.16;5045257;28;20437;-67
2021/05/17 04:40:17;;;;;;;10.10;4.70;;;;;;;13.31;61.88;98921.00;5044539;28;20540;-67
2021/05/17 04:42:44;;;;;;;6.80;5.40;;;;;;;13.36;61.99;98923.94;5044213;28;20541;-67
2021/05/17 04:45:11;;;;;;;7.37;5.03;;;;;;;13.03;62.63;98931.63;5044274;28;20473;-67
2021/05/17 04:47:38;;;;;;;5.90;5.03;;;;;;;12.58;65.29;98925.50;5044715;28;20521;-67
2021/05/17 04:50:06;;;;;;;5.27;4.47;;;;;;;13.22;62.99;98927.50;5043865;28;20457;-67
2021/05/17 04:52:32;;;;;;;7.43;4.90;;;;;;;13.43;62.67;98925.88;5043620;28;20461;-67
2021/05/17 04:54:59;;;;;;;5.50;4.90;;;;;;;13.62;62.08;98943.19;5044466;28;20454;-67
2021/05/17 04:57:25;;;;;;;6.10;5.50;;;;;;;13.20;63.28;98945.66;5043359;28;20522;-67
2021/05/17 04:59:51;;;;;;;6.27;5.50;;;;;;;13.01;63.65;98936.34;5044519;28;20465;-67
2021/05/17 05:02:17;;;;;;;7.70;4.70;;;;;;;12.73;64.07;98929.00;5043824;28;20567;-67
2021/05/17 05:04:44;;;;;;;6.40;5.43;;;;;;;13.25;63.26;98940.53;5034305;28;20482;-67
2021/05/17 05:07:10;;;;;;;8.97;5.53;;;;;;;13.23;62.61;98945.28;5043706;28;20492;-67
2021/05/17 05:09:36;;;;;;;6.10;4.80;;;;;;;12.93;65.37;98944.50;5043790;28;20966;-67
2021/05/17 05:12:03;;;;;;;6.20;5.50;;;;;;;13.05;64.05;98944.84;5043437;28;20482;-67
2021/05/17 05:14:29;;;;;;;5.57;4.87;;;;;;;13.09;64.53;98949.66;5044403;28;20486;-67
2021/05/17 05:16:55;;;;;;;5.53;5.03;;;;;;;13.50;63.07;98951.75;5043965;28;20524;-67
2021/05/17 05:19:22;;;;;;;5.43;4.80;;;;;;;13.31;63.25;98949.69;5043986;28;20579;-67
2021/05/17 05:21:49;;;;;;;10.03;5.20;;;;;;;12.98;64.25;98948.31;5042779;28;21042;-67
2021/05/17 05:24:15;;;;;;;6.00;5.40;;;;;;;12.99;65.53;98949.13;5036701;28;20530;-67
2021/05/17 05:26:57;;;;;;;11.03;6.40;;;;;;;13.51;63.30;98945.38;5042858;28;20485;-66
2021/05/17 05:29:30;;;;;;;6.07;5.10;;;;;;;13.30;64.60;98948.03;5037307;28;20465;-65
2021/05/17 05:31:57;;;;;;;7.20;5.80;;;;;;;13.18;63.91;98953.88;5042420;28;20516;-66
2021/05/17 05:34:25;;;;;;;6.53;5.47;;;;;;;13.71;63.26;98950.94;5043886;28;20942;-67
2021/05/17 05:36:52;;;;;;;7.93;5.97;;;;;;;13.39;63.78;98956.81;5042662;28;20481;-67
2021/05/17 05:39:18;;;;;;;9.33;5.97;;;;;;;13.31;63.91;98958.59;5042994;28;20453;-66
2021/05/17 05:41:44;;;;;;;8.70;5.70;;;;;;;13.65;63.83;98958.94;5042526;28;20476;-66
2021/05/17 05:44:11;;;;;;;9.53;5.77;;;;;;;13.79;63.21;98960.72;5043019;28;20525;-66
2021/05/17 05:46:37;;;;;;;6.87;5.97;;;;;;;13.82;63.05;98962.16;5042562;28;20506;-66
2021/05/17 05:49:04;;;;;;;7.67;6.20;;;;;;;13.81;62.03;98965.91;5039138;28;20546;-68
2021/05/17 05:51:30;;;;;;;7.40;6.00;;;;;;;13.80;62.30;98965.06;5036648;28;20600;-69
2021/05/17 05:53:58;;;;;;;6.90;6.20;;;;;;;14.55;60.86;98965.41;5042018;28;20442;-68
2021/05/17 05:56:25;;;;;;;7.67;6.57;;;;;;;14.60;59.43;98963.00;5040263;28;20486;-68
2021/05/17 05:58:51;;;;;;;6.40;5.03;;;;;;;13.75;61.91;98967.50;5042675;28;20526;-68
2021/05/17 06:01:18;;;;;;;6.13;5.53;;;;;;;13.64;62.60;98965.31;5040303;28;20473;-67
2021/05/17 06:03:44;;;;;;;8.07;5.13;;;;;;;14.36;61.49;98974.19;5024383;28;20437;-68
2021/05/17 06:06:11;;;;;;;7.10;5.53;;;;;;;13.32;63.52;98976.34;5023159;28;20497;-69
2021/05/17 06:08:40;;;;;;;14.83;5.93;;;;;;;13.19;65.24;98971.66;5023313;28;20449;-67
2021/05/17 06:11:08;;;;;;;6.20;5.60;;;;;;;13.31;64.01;98976.50;5023150;28;20478;-67
2021/05/17 06:13:35;;;;;;;7.37;4.60;;;;;;;13.70;62.81;98980.69;5025131;28;20450;-67
2021/05/17 06:16:02;;;;;;;6.50;5.47;;;;;;;13.85;62.41;98980.59;5042900;28;20474;-67
2021/05/17 06:18:29;;;;;;;7.50;5.33;;;;;;;13.98;61.67;98979.91;5043475;28;20521;-68
2021/05/17 06:20:55;;;;;;;10.40;5.63;;;;;;;14.20;61.49;98986.91;5032706;28;20509;-70
2021/05/17 06:23:22;;;;;;;5.97;5.00;;;;;;;15.28;59.62;98970.31;5038979;28;20454;-70
2021/05/17 06:25:49;;;;;;;4.93;4.43;;;;;;;15.52;57.41;98970.78;5041712;28;20495;-70
2021/05/17 06:28:20;;;;;;;8.67;5.60;;;;;;;15.69;55.40;98976.63;5042810;28;20525;-70
2021/05/17 06:30:50;;;;;;;4.97;4.10;;;;;;;15.68;55.86;98986.56;5041612;28;21040;-64
2021/05/17 06:33:18;;;;;;;5.00;4.10;;;;;;;15.67;55.67;98979.50;5042562;28;20834;-71
2021/05/17 06:35:46;;;;;;;5.67;4.13;;;;;;;15.15;58.99;98987.25;5024650;28;20474;-70
2021/05/17 06:38:12;;;;;;;5.23;4.27;;;;;;;15.94;57.36;98983.09;5036848;28;20441;-69
2021/05/17 06:40:38;;;;;;;6.77;3.93;;;;;;;15.50;57.95;98980.94;5041712;28;20521;-69
2021/05/17 06:43:04;;;;;;;5.60;4.23;;;;;;;15.29;57.47;98977.34;5042517;28;20454;-69
2021/05/17 06:45:33;;;;;;;5.97;4.90;;;;;;;14.59;59.32;98990.09;5041674;28;20490;-69
2021/05/17 06:47:59;;;;;;;6.93;5.90;;;;;;;14.69;60.07;98988.69;5042466;28;20453;-67
2021/05/17 06:50:26;;;;;;;6.80;5.80;;;;;;;14.36;60.80;98988.44;5041624;28;20477;-66
2021/05/17 06:52:53;;;;;;;8.73;5.80;;;;;;;14.62;60.48;98981.63;5041710;28;20458;-66
2021/05/17 06:55:22;;;;;;;6.03;5.53;;;;;;;14.81;60.34;98996.22;5033564;28;20483;-65
2021/05/17 06:57:59;;;;;;;6.30;5.37;;;;;;;14.21;62.08;98990.41;5039750;28;20492;-65
2021/05/17 07:00:29;;;;;;;36.93;28.30;;;;;;;14.64;61.52;98991.16;5020022;28;20466;-71
2021/05/17 07:02:59;;;;;;;18.13;15.80;;;;;;;15.14;61.18;98996.38;5022153;28;20463;-71
2021/05/17 07:05:27;;;;;;;8.30;5.70;;;;;;;14.66;61.99;98999.00;5040955;28;20478;-72
2021/05/17 07:11:32;;;;;;;8.53;5.40;;;;;;;14.28;62.77;98993.97;5040418;28;20453;-67
2021/05/17 07:13:29;;;;;;;5.20;4.63;;;;;;;15.01;61.36;99001.69;5024093;28;20460;-66
2021/05/17 07:15:55;;;;;;;5.97;4.87;;;;;;;15.26;59.93;98996.63;5037850;28;20569;-66
2021/05/17 07:18:22;;;;;;;8.10;5.90;;;;;;;16.00;57.61;98990.38;5035282;28;20445;-66
2021/05/17 07:23:42;;;;;;;7.03;5.50;;;;;;;15.39;59.66;98998.50;5038727;28;20500;-67
2021/05/17 07:26:11;;;;;;;6.37;5.77;;;;;;;15.33;60.38;99010.94;5040614;28;20477;-69
2021/05/17 07:28:38;;;;;;;7.40;6.70;;;;;;;15.65;58.78;99005.00;5032969;28;20497;-73
2021/05/17 07:31:06;;;;;;;6.20;5.60;;;;;;;15.40;60.28;99013.66;5023313;28;20525;-67
2021/05/17 07:33:34;;;;;;;7.77;7.07;;;;;;;15.11;60.61;99014.78;5023989;28;20443;-67
2021/05/17 07:36:00;;;;;;;8.10;7.40;;;;;;;14.85;61.32;99009.06;5023644;28;20474;-67
2021/05/17 07:38:30;;;;;;;7.90;7.00;;;;;;;15.29;60.59;99020.44;5039844;28;20449;-67
2021/05/17 07:40:56;;;;;;;8.07;7.20;;;;;;;14.82;61.15;99014.00;5042513;28;20601;-67
2021/05/17 07:43:23;;;;;;;11.40;6.80;;;;;;;14.82;61.67;99011.31;5043145;28;20450;-68
2021/05/17 07:45:49;;;;;;;9.00;8.00;;;;;;;15.18;61.12;99019.16;5042858;28;20481;-72
2021/05/17 07:48:15;;;;;;;8.13;7.40;;;;;;;15.37;60.11;99008.66;5044109;28;20441;-67
2021/05/17 07:50:43;;;;;;;8.47;7.60;;;;;;;14.55;61.77;99015.66;5036901;28;20482;-73
2021/05/17 07:53:09;;;;;;;13.50;7.70;;;;;;;15.19;60.87;99014.59;5037302;28;21028;-73
2021/05/17 07:55:35;;;;;;;10.47;8.77;;;;;;;15.48;60.00;99009.94;5039642;28;20476;-73
2021/05/17 07:58:01;;;;;;;8.77;7.87;;;;;;;15.42;60.20;99006.19;5043188;28;20894;-72
2021/05/17 08:00:27;;;;;;;8.67;7.77;;;;;;;15.15;59.90;99008.78;5041638;28;20477;-71
2021/05/17 08:02:54;;;;;;;9.10;8.20;;;;;;;14.61;62.61;99015.75;5042429;28;20462;-72
2021/05/17 08:05:20;;;;;;;8.20;7.50;;;;;;;14.62;63.54;99014.72;5042406;28;20485;-67
2021/05/17 08:07:47;;;;;;;9.57;7.17;;;;;;;14.56;63.17;99017.34;5042938;28;20446;-68
2021/05/17 08:10:14;;;;;;;9.37;8.27;;;;;;;14.68;64.65;99008.53;5041432;28;20453;-67
2021/05/17 08:12:40;;;;;;;9.03;8.23;;;;;;;15.72;61.52;99006.66;5042347;28;20736;-63
2021/05/17 08:15:07;;;;;;;8.83;7.97;;;;;;;15.98;60.30;99005.09;5042974;28;20433;-66
2021/05/17 08:17:33;;;;;;;9.23;8.33;;;;;;;16.38;60.16;99010.47;5041962;28;20496;-66
2021/05/17 08:20:00;;;;;;;9.50;8.10;;;;;;;16.20;60.59;99021.91;5033255;28;20958;-70
2021/05/17 08:22:26;;;;;;;10.10;8.97;;;;;;;16.00;60.61;99024.56;5029930;28;20492;-69
2021/05/17 08:24:55;;;;;;;9.50;8.50;;;;;;;15.90;61.07;99025.00;5041110;28;20513;-67
2021/05/17 08:27:21;;;;;;;8.73;7.90;;;;;;;16.17;60.52;99028.53;5042048;28;20474;-66
2021/05/17 08:29:47;;;;;;;7.53;6.70;;;;;;;16.48;59.45;99024.38;5019406;28;659961;-66
2021/05/17 08:32:13;;;;;;;10.03;7.10;;;;;;;16.97;58.91;99016.00;5039934;28;20488;-71
2021/05/17 08:34:40;;;;;;;7.50;6.83;;;;;;;16.91;59.04;99023.91;5024402;28;20446;-71
2021/05/17 08:37:06;;;;;;;8.20;7.50;;;;;;;17.23;57.88;99025.88;5037854;28;20998;-70
2021/05/17 08:39:32;;;;;;;8.13;7.50;;;;;;;17.83;56.22;99020.16;5034362;28;20976;-72
2021/05/17 08:42:00;;;;;;;6.97;6.40;;;;;;;18.80;54.67;99014.34;5023202;28;20482;-70
2021/05/17 08:44:28;;;;;;;7.20;6.60;;;;;;;19.38;51.86;99013.91;5024242;28;20854;-68
2021/05/17 08:46:54;;;;;;;11.97;5.47;;;;;;;18.20;52.61;99020.34;5040629;28;20489;-68
2021/05/17 08:49:22;;;;;;;8.50;4.97;;;;;;;18.06;53.13;99015.03;5036488;28;20461;-66
2021/05/17 08:51:51;;;;;;;5.13;4.63;;;;;;;20.32;49.98;99015.28;5042550;28;20477;-71
2021/05/17 08:54:17;;;;;;;8.10;3.83;;;;;;;19.43;50.38;99007.00;5042697;28;20684;-69
2021/05/17 08:56:44;;;;;;;5.33;4.83;;;;;;;19.32;48.39;99001.28;5040102;28;20473;-66
2021/05/17 08:59:14;;;;;;;5.13;3.70;;;;;;;18.58;50.41;99003.13;5043444;28;20442;-69
2021/05/17 09:01:41;;;;;;;8.37;4.80;;;;;;;18.43;51.20;99001.59;5041756;28;20843;-70
2021/05/17 09:04:10;;;;;;;5.20;4.33;;;;;;;18.16;53.12;99001.00;5042646;28;20457;-70
2021/05/17 09:06:38;;;;;;;6.60;4.80;;;;;;;18.09;52.66;98999.41;5040090;28;20536;-70
2021/05/17 09:09:06;;;;;;;7.67;5.60;;;;;;;18.26;52.56;99016.72;5043619;28;20454;-68
2021/05/17 09:11:47;;;;;;;5.90;5.40;;;;;;;17.93;54.47;99023.22;5040973;28;20520;-70
2021/05/17 09:14:14;;;;;;;8.80;8.00;;;;;;;17.03;58.54;99034.88;4988164;28;20444;-71
2021/05/17 09:16:51;;;;;;;6.33;4.87;;;;;;;15.51;61.48;99044.56;4990968;28;20483;-70
2021/05/17 09:19:18;;;;;;;3.33;2.70;;;;;;;13.71;63.71;99053.00;4983404;28;20483;-65
2021/05/17 09:22:02;;;;;;;2.40;2.27;;;;;;;13.93;64.08;99048.47;4980437;28;20577;-67
2021/05/17 09:24:43;;;;;;;1.87;1.50;;;;;;;14.05;62.88;99039.91;4980723;28;20483;-68
2021/05/17 09:27:11;;;;;;;1.73;1.07;;;;;;;13.94;61.22;99047.44;4980740;28;20476;-68
2021/05/17 09:29:40;;;;;;;6.40;1.90;;;;;;;14.73;61.40;99037.53;4980610;28;20468;-68
2021/05/17 09:32:18;;;;;;;2.40;1.90;;;;;;;15.21;60.14;99048.38;4987774;28;20471;-67
2021/05/17 09:34:46;;;;;;;4.20;1.40;;;;;;;15.79;58.21;99036.38;5000596;28;21175;-71
2021/05/17 09:37:13;;;;;;;1.43;1.30;;;;;;;16.21;57.18;99041.59;4995619;28;20500;-72
2021/05/17 09:39:48;;;;;;;2.57;1.30;;;;;;;17.96;53.09;99025.50;4996207;28;20503;-66
2021/05/17 09:42:14;;;;;;;3.17;1.70;;;;;;;20.40;46.51;99025.78;4999082;28;21102;-66
2021/05/17 09:44:45;;;;;;;2.07;1.10;;;;;;;20.77;45.00;99036.44;4989750;28;20587;-71
2021/05/17 09:47:14;;;;;;;2.40;1.50;;;;;;;21.40;44.67;99036.69;4999178;28;20486;-66
2021/05/17 09:49:42;;;;;;;2.00;1.60;;;;;;;20.73;46.94;99039.84;4993521;28;20441;-67
2021/05/17 09:52:12;;;;;;;1.97;1.53;;;;;;;19.65;50.02;99040.69;5028218;28;20493;-68
2021/05/17 09:54:52;;;;;;;2.13;1.80;;;;;;;18.15;53.19;99041.81;5037867;28;20437;-65
2021/05/17 09:57:19;;;;;;;1.47;1.00;;;;;;;16.42;56.30;99035.97;5021814;28;20470;-66
2021/05/17 09:59:47;;;;;;;1.80;1.70;;;;;;;16.56;56.27;99020.59;5022058;28;20455;-66
2021/05/17 10:02:27;;;;;;;3.53;1.67;;;;;;;17.06;56.71;99017.41;5028142;28;20486;-67
2021/05/17 10:04:54;;;;;;;2.70;1.67;;;;;;;17.47;55.49;99027.00;5042002;28;20482;-70
2021/05/17 10:07:20;;;;;;;1.90;1.53;;;;;;;18.74;53.16;99032.31;5041722;28;20505;-71
2021/05/17 10:09:46;;;;;;;2.40;1.67;;;;;;;20.27;48.04;99024.09;5025898;28;20454;-66
2021/05/17 10:12:12;;;;;;;4.10;1.90;;;;;;;20.18;48.41;99013.84;5021991;28;20509;-70
2021/05/17 10:14:38;;;;;;;3.73;1.60;;;;;;;19.89;49.25;99011.78;5026804;28;20456;-69
2021/05/17 10:17:06;;;;;;;4.57;1.70;;;;;;;19.54;50.72;99017.03;5040504;28;20793;-68
2021/05/17 10:19:32;;;;;;;2.97;1.87;;;;;;;18.32;52.56;99002.34;5040428;28;20429;-70
2021/05/17 10:21:59;;;;;;;2.60;1.73;;;;;;;18.19;51.93;99003.28;5034792;28;20485;-69
2021/05/17 10:24:26;;;;;;;6.57;3.27;;;;;;;19.55;50.13;99007.88;5040062;28;20493;-70
2021/05/17 10:26:53;;;;;;;5.90;2.13;;;;;;;21.85;45.68;99000.56;5040585;28;20690;-69
2021/05/17 10:29:19;;;;;;;3.80;3.50;;;;;;;23.45;41.05;98993.66;5031523;28;20457;-70
2021/05/17 10:31:55;;;;;;;2.47;1.20;;;;;;;22.51;40.86;98995.41;5020419;28;20489;-70
2021/05/17 10:34:22;;;;;;;2.50;1.90;;;;;;;21.00;46.77;98994.00;5022452;28;20449;-69
2021/05/17 10:36:51;;;;;;;2.00;1.27;;;;;;;21.20;43.97;98999.06;5024364;28;20509;-69
2021/05/17 10:39:18;;;;;;;2.40;1.57;;;;;;;20.96;44.10;98993.66;5040894;28;20446;-72
2021/05/17 10:42:09;;;;;;;2.50;1.10;;;;;;;21.21;45.26;98992.53;5040707;28;20470;-71
2021/05/17 10:48:20;;;;;;;4.50;2.10;;;;;;;19.09;47.31;98993.84;5021062;28;20453;-67
2021/05/17 10:50:49;;;;;;;2.30;2.07;;;;;;;20.71;48.90;98996.66;5039000;28;20481;-69
2021/05/17 10:53:40;;;;;;;3.50;2.17;;;;;;;20.69;47.09;98996.91;5040305;28;20461;-72
2021/05/17 10:56:07;;;;;;;6.23;2.40;;;;;;;20.41;45.66;99003.00;5037494;28;20501;-67
2021/05/17 11:01:49;;;;;;;3.30;2.37;;;;;;;20.81;45.10;98986.00;5040234;28;20479;-69
2021/05/17 11:04:30;;;;;;;7.07;2.10;;;;;;;20.00;45.92;98980.31;5040645;28;20464;-69
2021/05/17 11:07:19;;;;;;;2.73;1.80;;;;;;;21.72;44.87;98982.66;5040464;28;20485;-69
2021/05/17 11:09:54;;;;;;;4.30;2.43;;;;;;;21.33;44.15;98982.44;5040304;28;20480;-69
2021/05/17 11:13:02;;;;;;;3.80;1.70;;;;;;;20.72;43.18;98981.19;5032609;28;20482;-68
2021/05/17 11:15:40;;;;;;;4.37;2.17;;;;;;;21.13;44.51;98990.22;5021825;28;20467;-65
2021/05/17 11:18:22;;;;;;;3.07;2.57;;;;;;;20.08;47.32;98998.13;5038725;28;20586;-70
2021/05/17 11:20:53;;;;;;;3.30;2.53;;;;;;;20.54;47.92;98987.56;5039365;28;20501;-70
2021/05/17 11:23:36;;;;;;;2.87;2.03;;;;;;;19.78;46.98;98982.72;5040545;28;20449;-72
2021/05/17 11:26:05;;;;;;;4.07;2.53;;;;;;;20.77;46.80;98992.97;5031640;28;21067;-70
2021/05/17 11:28:58;;;;;;;4.97;2.10;;;;;;;20.28;47.57;98986.94;5024294;28;20461;-70
2021/05/17 11:31:40;;;;;;;3.97;2.60;;;;;;;19.98;46.14;98984.31;5040510;28;20549;-69
2021/05/17 11:34:10;;;;;;;3.40;2.37;;;;;;;22.75;42.15;98987.03;5041218;28;20585;-70
2021/05/17 11:36:38;;;;;;;4.57;2.43;;;;;;;21.95;42.29;98980.88;5040511;28;20473;-70
2021/05/17 11:39:13;;;;;;;2.73;2.53;;;;;;;23.13;40.66;98983.47;5037190;28;20519;-70
2021/05/17 11:41:41;;;;;;;5.17;2.50;;;;;;;23.43;39.49;98984.06;5031823;28;20651;-70
2021/05/17 11:44:09;;;;;;;3.00;2.43;;;;;;;21.90;39.11;98983.50;5021694;28;20457;-70
2021/05/17 11:46:37;;;;;;;3.30;2.43;;;;;;;21.54;39.36;98980.13;5038321;28;20480;-69
2021/05/17 11:49:03;;;;;;;5.00;2.63;;;;;;;22.01;39.05;98982.59;5040320;28;20458;-70
2021/05/17 11:51:30;;;;;;;5.30;2.20;;;;;;;22.27;39.36;98975.72;5026045;28;20522;-71